首页
METAR-TAF:

METAR-TAF

机场 :

格羅德諾機場

格罗德诺, 白俄罗斯

纬度: 53-36-06N, 经度: 024-03-18E, 海拔: 135米

当前天气观测

该预报发布于7小时和24分钟前的16:00 UTC
风速16节,风向东南,有时为21节阵风
温度 23°C
湿度 44%
气压 1000 hPa
能见度10公里或以上
1500米以下无云,无积雨云

METAR: UMMG 261600Z 13008G11MPS CAVOK 23/10 Q1000 NOSIG

时间: 02:24 (23:24 UTC)

预报

该预报发布于9小时和20分钟前的14:04 UTC
预报有效从26日的 15点(UTC)到 26日的 24点(UTC)
风速17节,风向东转东南,有时为27节阵风
能见度10公里或以上
多云层高于2000英尺
短暂存在
从 26日的 15点(UTC)到 26日的 17点(UTC)
风速25节,风向东南,有时为35节阵风
能見度: 6000
低吹尘
短暂存在
从 26日的 17点(UTC)到 26日的 24点(UTC)
风速27节,风向多变,有时为37节阵风
能見度: 6000
多云层高于1600英尺, 积雨云.
雷暴, 小雨

TAF: UMMG 261404Z 2615/2624 12009G14MPS 9999 BKN020 TEMPO 2615/2617 13013G18MPS 6000 DRDU TEMPO 2617/2624 VRB14G19MPS 6000 -TSRA BKN016CB

超过4000个机场的气象观测和天气预报(METAR&TAF报告)。

可查询的气象台以黄色和红色小点在地图上表示。

将鼠标移到小点上方,可查看气象台名称。

然后点击查看天气观测和预报。

如需切换地图:点击带黑十字的绿色按钮放大地图;点击带横线的绿色按钮缩小地图;或者点击绿色箭头查看邻近地区的地图。


METAR-TAF: